Time;durP1;ratioP1;P1;durP2;ratioP2;P2;SDS_P1;SDS_P2;PMS_P1;PMS_P2;Temp;Humidity;BMP_temperature;BMP_pressure;BME280_temperature;BME280_humidity;BME280_pressure;Samples;Min_cycle;Max_cycle;Signal;HPM_P1;HPM_P2
2022/04/10 00:02:03;;;;;;;15.73;9.00;;;;;;;12.58;71.77;97872.19;5006793;28;20151;-88
2022/04/10 00:04:29;;;;;;;16.03;10.10;;;;;;;11.56;70.78;97710.31;5003456;28;20171;-89
2022/04/10 00:06:55;;;;;;;16.30;10.10;;;;;;;13.57;71.47;98054.50;5013461;28;20235;-89
2022/04/10 00:09:20;;;;;;;24.73;12.17;;;;;;;11.76;71.05;97724.09;4997859;28;20689;-87
2022/04/10 00:11:46;;;;;;;19.00;11.47;;;;;;;12.56;70.17;97884.00;5003957;28;20214;-89
2022/04/10 00:14:11;;;;;;;20.43;10.77;;;;;;;13.19;69.86;97954.97;4998019;28;20155;-89
2022/04/10 00:16:36;;;;;;;25.60;12.80;;;;;;;11.16;69.38;97611.84;4999530;28;20249;-89
2022/04/10 00:19:04;;;;;;;32.57;15.70;;;;;;;12.59;69.08;97847.66;5002775;28;20213;-89
2022/04/10 00:21:31;;;;;;;24.87;12.03;;;;;;;11.52;70.00;97682.38;5002591;28;20152;-89
2022/04/10 00:23:57;;;;;;;24.87;11.97;;;;;;;11.48;69.84;97663.75;5000549;28;20175;-90
2022/04/10 00:26:22;;;;;;;27.20;12.50;;;;;;;13.80;70.28;98095.41;5013944;28;20189;-88
2022/04/10 00:28:48;;;;;;;21.77;12.10;;;;;;;12.15;70.29;97802.34;5004398;28;20202;-88
2022/04/10 00:31:13;;;;;;;22.23;11.43;;;;;;;13.07;70.68;97949.81;5004196;28;20187;-89
2022/04/10 00:33:39;;;;;;;17.47;10.13;;;;;;;11.69;68.98;97693.59;5014901;28;20194;-88
2022/04/10 00:36:05;;;;;;;19.67;10.70;;;;;;;13.30;68.43;97967.78;4999271;28;20179;-88
2022/04/10 00:38:31;;;;;;;17.87;10.70;;;;;;;12.52;67.74;97812.91;4996926;28;20317;-88
2022/04/10 00:40:56;;;;;;;17.20;9.50;;;;;;;13.16;67.18;97944.78;4995858;28;20183;-89
2022/04/10 00:43:25;;;;;;;14.93;8.73;;;;;;;11.23;66.88;97627.13;4996442;28;20290;-88
2022/04/10 00:45:51;;;;;;;17.37;7.93;;;;;;;11.84;66.32;97734.31;4995327;28;20194;-87
2022/04/10 00:48:16;;;;;;;13.27;7.70;;;;;;;12.07;66.61;97770.97;4997268;28;20282;-89
2022/04/10 00:51:40;;;;;;;14.47;7.70;;;;;;;13.73;67.79;98074.19;4996440;28;20650;-89
2022/04/10 00:53:28;;;;;;;12.13;7.37;;;;;;;13.65;68.28;98054.59;4996852;28;20583;-88
2022/04/10 00:55:54;;;;;;;12.63;7.37;;;;;;;12.92;69.02;97962.28;4995356;28;20167;-88
2022/04/10 00:58:19;;;;;;;12.60;7.50;;;;;;;11.42;69.97;97756.56;5009705;28;20222;-88
2022/04/10 01:00:44;;;;;;;12.20;7.63;;;;;;;11.46;71.34;97822.50;4994844;28;20247;-88
2022/04/10 01:03:10;;;;;;;14.20;7.63;;;;;;;13.37;71.28;98092.44;4993677;28;20229;-88
2022/04/10 01:05:35;;;;;;;13.53;8.43;;;;;;;11.73;72.65;97830.53;4993130;28;20179;-88
2022/04/10 01:08:01;;;;;;;16.67;8.63;;;;;;;11.56;74.25;97820.97;4993241;28;20536;-88
2022/04/10 01:10:26;;;;;;;14.13;8.67;;;;;;;13.29;74.11;98083.88;4993742;28;20188;-89
2022/04/10 01:12:52;;;;;;;13.70;8.60;;;;;;;12.68;73.80;97960.31;4993713;28;20160;-89
2022/04/10 01:15:18;;;;;;;17.33;9.30;;;;;;;12.97;75.14;97991.13;4995001;28;20185;-88
2022/04/10 01:17:44;;;;;;;18.07;9.30;;;;;;;12.29;73.92;97849.03;5014402;28;20199;-88
2022/04/10 01:20:10;;;;;;;20.30;8.80;;;;;;;12.99;75.37;97951.38;4994043;28;20222;-88
2022/04/10 01:22:36;;;;;;;16.13;8.93;;;;;;;11.66;74.78;97712.13;4992590;28;20171;-88
2022/04/10 01:25:06;;;;;;;16.70;8.97;;;;;;;11.21;74.40;97605.16;4994003;28;20163;-88
2022/04/10 01:27:39;;;;;;;20.73;8.93;;;;;;;12.61;75.77;97811.28;5007208;28;20173;-88
2022/04/10 01:30:06;;;;;;;20.17;9.50;;;;;;;14.20;77.47;98072.06;4998957;28;20167;-87
2022/04/10 01:32:32;;;;;;;18.57;8.60;;;;;;;13.02;77.46;97872.63;5009475;28;20265;-87
2022/04/10 01:35:00;;;;;;;19.30;9.20;;;;;;;14.39;76.77;98071.38;4993992;28;20201;-88
2022/04/10 01:37:28;;;;;;;19.27;9.13;;;;;;;14.41;76.85;98056.09;4993334;28;20637;-89
2022/04/10 01:39:53;;;;;;;17.53;9.27;;;;;;;14.05;76.81;97993.91;5008332;28;20171;-89
2022/04/10 01:42:19;;;;;;;20.80;9.27;;;;;;;12.46;76.17;97714.72;4992605;28;20194;-88
2022/04/10 01:44:44;;;;;;;17.67;8.80;;;;;;;13.96;76.02;97963.28;4992003;28;20220;-88
2022/04/10 01:47:10;;;;;;;17.77;8.37;;;;;;;13.71;76.79;97907.97;4995863;28;20219;-87
2022/04/10 01:49:36;;;;;;;17.60;7.90;;;;;;;13.19;76.01;97792.38;4997375;28;20178;-87
2022/04/10 01:52:02;;;;;;;14.70;7.60;;;;;;;11.65;75.88;97537.22;4995697;28;20194;-87
2022/04/10 01:54:27;;;;;;;16.30;7.30;;;;;;;11.78;75.72;97539.91;5016652;28;20167;-89
2022/04/10 01:56:52;;;;;;;14.20;6.57;;;;;;;12.52;76.22;97666.53;5007643;28;20183;-87
2022/04/10 01:59:18;;;;;;;13.77;6.70;;;;;;;12.60;76.14;97677.59;5011279;28;20159;-88
2022/04/10 02:01:43;;;;;;;15.63;6.60;;;;;;;13.45;77.05;97838.31;5016306;28;20183;-89
2022/04/10 02:04:08;;;;;;;13.87;6.53;;;;;;;12.72;76.96;97735.22;5005988;28;20253;-88
2022/04/10 02:06:35;;;;;;;14.00;6.17;;;;;;;14.45;77.25;97997.56;5010282;28;20176;-88
2022/04/10 02:09:00;;;;;;;14.43;6.30;;;;;;;14.50;77.71;98043.44;5003015;28;20155;-88
2022/04/10 02:11:26;;;;;;;14.90;6.60;;;;;;;12.83;77.16;97728.53;5015669;28;20202;-87
2022/04/10 02:13:51;;;;;;;15.00;6.00;;;;;;;13.73;77.15;97877.50;5009985;28;20639;-88
2022/04/10 02:16:19;;;;;;;11.03;6.13;;;;;;;13.14;77.60;97776.25;5016303;28;20687;-87
2022/04/10 02:18:46;;;;;;;10.83;6.33;;;;;;;13.35;77.60;97819.59;5011779;28;20183;-88
2022/04/10 02:21:11;;;;;;;15.17;6.10;;;;;;;12.54;77.38;97680.09;5016785;28;20182;-88
2022/04/10 02:23:37;;;;;;;13.47;6.50;;;;;;;13.20;77.69;97798.31;5020110;28;20174;-87
2022/04/10 02:26:04;;;;;;;10.83;6.37;;;;;;;13.03;78.28;97796.47;5019946;28;20171;-89
2022/04/10 02:28:29;;;;;;;11.37;6.33;;;;;;;13.06;78.26;97795.63;5017646;28;20618;-89
2022/04/10 02:30:55;;;;;;;15.80;6.10;;;;;;;13.17;78.05;97804.22;5016914;28;20218;-88
2022/04/10 02:33:20;;;;;;;12.27;6.20;;;;;;;12.48;77.67;97684.25;5018539;28;20538;-88
2022/04/10 02:35:46;;;;;;;15.17;6.10;;;;;;;13.57;78.07;97866.34;5019946;28;20166;-89
2022/04/10 02:38:12;;;;;;;14.53;5.97;;;;;;;14.49;77.91;98029.00;5016602;28;20166;-90
2022/04/10 02:40:37;;;;;;;17.63;6.23;;;;;;;12.52;77.82;97714.78;5016875;28;20675;-88
2022/04/10 02:43:02;;;;;;;15.03;5.83;;;;;;;12.26;78.87;97676.47;5013907;28;20266;-89
2022/04/10 02:45:29;;;;;;;15.00;6.70;;;;;;;12.50;80.09;97734.19;4996443;28;20171;-88
2022/04/10 02:47:54;;;;;;;13.30;6.20;;;;;;;12.05;79.46;97639.91;4999578;28;20254;-89
2022/04/10 02:50:20;;;;;;;13.17;5.90;;;;;;;12.38;79.97;97716.31;4998264;28;20199;-88
2022/04/10 02:52:45;;;;;;;14.90;6.20;;;;;;;14.30;80.17;98050.91;4998057;28;20222;-87
2022/04/10 02:55:11;;;;;;;15.87;5.70;;;;;;;11.29;79.70;97524.22;4998189;28;20167;-88
2022/04/10 02:57:37;;;;;;;14.30;5.73;;;;;;;12.25;80.16;97694.22;4999190;28;20170;-88
2022/04/10 03:00:04;;;;;;;11.93;5.53;;;;;;;14.18;81.10;98055.91;4995910;28;20172;-88
2022/04/10 03:02:29;;;;;;;13.27;5.73;;;;;;;12.31;79.78;97699.31;4995743;28;20187;-87
2022/04/10 03:04:54;;;;;;;11.97;5.40;;;;;;;14.31;80.17;98032.22;4997435;28;20306;-88
2022/04/10 03:07:20;;;;;;;12.23;5.83;;;;;;;11.74;79.56;97623.53;4996899;28;20554;-88
2022/04/10 03:09:45;;;;;;;14.27;5.37;;;;;;;14.20;80.70;98024.53;4997510;28;20167;-88
2022/04/10 03:12:11;;;;;;;13.37;5.40;;;;;;;12.74;81.32;97812.28;4996478;28;20191;-89
2022/04/10 03:14:36;;;;;;;13.50;5.27;;;;;;;14.18;80.85;98027.91;4996959;28;20163;-88
2022/04/10 03:17:02;;;;;;;13.63;5.67;;;;;;;11.32;81.07;97563.06;4994393;28;20186;-88
2022/04/10 03:19:28;;;;;;;14.40;5.77;;;;;;;11.96;82.71;97688.84;4996716;28;20159;-87
2022/04/10 03:21:54;;;;;;;13.13;5.80;;;;;;;14.04;81.66;98014.22;4995518;28;20160;-89
2022/04/10 03:24:19;;;;;;;10.23;5.17;;;;;;;12.78;81.22;97798.75;4994139;28;20189;-89
2022/04/10 03:26:45;;;;;;;13.40;5.40;;;;;;;12.63;82.05;97808.78;4993554;28;20230;-86
2022/04/10 03:29:12;;;;;;;13.63;5.90;;;;;;;11.77;83.10;97690.31;4995421;28;20546;-89
2022/04/10 03:31:38;;;;;;;12.23;5.73;;;;;;;12.67;83.36;97830.81;4994060;28;20195;-89
2022/04/10 03:34:03;;;;;;;15.80;5.73;;;;;;;12.13;82.83;97725.38;4998490;28;20167;-89
2022/04/10 03:36:28;;;;;;;13.90;6.40;;;;;;;11.82;82.66;97682.75;4995524;28;20532;-89
2022/04/10 03:38:54;;;;;;;11.30;5.47;;;;;;;10.93;82.68;97538.13;4993908;28;20205;-89
2022/04/10 03:41:19;;;;;;;14.37;5.80;;;;;;;11.49;82.55;97602.13;4994956;28;20172;-88
2022/04/10 03:43:44;;;;;;;14.60;5.87;;;;;;;11.23;82.36;97588.31;4993554;28;20178;-89
2022/04/10 03:46:10;;;;;;;13.03;5.93;;;;;;;11.95;82.60;97707.41;4994072;28;20182;-88
2022/04/10 03:48:35;;;;;;;11.70;6.03;;;;;;;12.24;82.77;97748.31;4994671;28;20223;-87
2022/04/10 03:51:01;;;;;;;14.53;5.80;;;;;;;11.34;82.97;97608.69;4995170;28;20189;-90
2022/04/10 03:53:26;;;;;;;14.10;5.83;;;;;;;10.51;82.60;97456.63;4995535;28;20170;-88
2022/04/10 03:55:51;;;;;;;14.87;6.10;;;;;;;11.06;82.01;97529.00;4999026;28;20167;-87
2022/04/10 03:58:17;;;;;;;13.33;5.83;;;;;;;12.87;82.47;97842.03;4999458;28;20231;-88
2022/04/10 04:00:44;;;;;;;12.80;5.57;;;;;;;11.85;81.70;97677.72;4998127;28;20168;-88
2022/04/10 04:03:10;;;;;;;17.80;6.10;;;;;;;13.27;81.47;97920.34;4997598;28;20183;-88
2022/04/10 04:05:35;;;;;;;16.90;6.03;;;;;;;14.29;80.95;98071.25;4996603;28;20167;-88
2022/04/10 04:08:01;;;;;;;12.57;5.63;;;;;;;11.50;80.01;97590.31;4998594;28;20171;-89
2022/04/10 04:10:26;;;;;;;20.20;12.90;;;;;;;12.13;80.46;97710.16;5010561;28;20199;-89
2022/04/10 04:12:52;;;;;;;19.80;10.03;;;;;;;13.07;80.77;97858.34;4995761;28;20167;-88
2022/04/10 04:15:17;;;;;;;14.63;7.20;;;;;;;11.32;80.57;97615.44;4998614;28;20163;-88
2022/04/10 04:17:43;;;;;;;16.67;6.87;;;;;;;11.20;80.01;97568.00;4998008;28;20182;-88
2022/04/10 04:20:09;;;;;;;14.50;6.33;;;;;;;14.29;80.38;98125.56;4994612;28;20178;-87
2022/04/10 04:22:35;;;;;;;16.23;6.70;;;;;;;13.63;80.25;97987.59;4995155;28;20620;-88
2022/04/10 04:25:02;;;;;;;12.63;7.07;;;;;;;14.33;80.21;98091.69;4995470;28;20167;-89
2022/04/10 04:27:27;;;;;;;21.70;7.77;;;;;;;14.26;80.46;98100.09;5011815;28;20194;-88
2022/04/10 04:29:53;;;;;;;14.83;7.43;;;;;;;14.21;81.34;98114.47;4995923;28;20196;-88
2022/04/10 04:32:18;;;;;;;15.70;7.00;;;;;;;11.39;82.31;97690.66;4995734;28;20568;-88
2022/04/10 04:34:43;;;;;;;17.83;8.10;;;;;;;11.74;81.85;97740.13;5004897;28;20160;-87
2022/04/10 04:37:09;;;;;;;20.00;8.40;;;;;;;12.73;84.04;97952.75;5011575;28;20171;-87
2022/04/10 04:39:35;;;;;;;16.33;7.63;;;;;;;13.51;86.13;98106.13;5018677;28;20156;-88
2022/04/10 04:42:00;;;;;;;14.87;7.87;;;;;;;10.38;86.55;97596.41;5014455;28;20169;-89
2022/04/10 04:44:26;;;;;;;17.43;8.10;;;;;;;10.13;86.63;97553.88;4999092;28;20163;-87
2022/04/10 04:46:51;;;;;;;20.47;8.07;;;;;;;12.32;86.91;97929.41;4997038;28;20238;-88
2022/04/10 04:49:16;;;;;;;18.37;8.23;;;;;;;12.44;87.13;97932.94;4995327;28;20680;-88
2022/04/10 04:51:42;;;;;;;15.93;8.10;;;;;;;10.23;86.72;97540.53;4998046;28;20206;-89
2022/04/10 04:54:10;;;;;;;16.57;8.53;;;;;;;11.37;86.86;97760.72;4997790;28;20170;-89
2022/04/10 04:56:36;;;;;;;20.57;8.67;;;;;;;11.78;87.40;97830.59;4996554;28;20176;-88
2022/04/10 04:59:01;;;;;;;22.50;12.43;;;;;;;12.37;88.61;97941.31;4997271;28;20178;-87
2022/04/10 05:01:27;;;;;;;25.10;12.90;;;;;;;10.14;89.89;97578.31;4996746;28;20203;-87
2022/04/10 05:03:52;;;;;;;61.90;39.20;;;;;;;10.93;88.77;97684.13;4995510;28;20238;-87
2022/04/10 05:06:18;;;;;;;101.57;63.63;;;;;;;12.55;87.77;97933.09;4997416;28;20177;-88
2022/04/10 05:08:46;;;;;;;51.30;31.53;;;;;;;12.91;87.06;97971.59;5011567;28;20182;-88
2022/04/10 05:11:13;;;;;;;40.17;24.00;;;;;;;13.62;87.25;98092.69;4998251;28;20195;-88
2022/04/10 05:13:39;;;;;;;125.73;80.60;;;;;;;13.07;86.57;97984.47;4996723;28;20166;-88
2022/04/10 05:16:05;;;;;;;190.30;112.40;;;;;;;13.40;85.08;98011.13;4995771;28;20171;-87
2022/04/10 05:18:31;;;;;;;32.20;14.40;;;;;;;12.70;83.74;97861.31;4993904;28;20254;-86
2022/04/10 05:20:56;;;;;;;34.10;17.20;;;;;;;11.83;83.98;97719.97;5009971;28;20702;-88
2022/04/10 05:23:22;;;;;;;33.33;15.80;;;;;;;14.15;83.47;98112.72;4996890;28;20175;-87
2022/04/10 05:25:48;;;;;;;55.90;24.80;;;;;;;11.76;83.09;97719.03;4998575;28;20175;-87
2022/04/10 05:28:14;;;;;;;64.57;25.87;;;;;;;11.89;83.86;97762.28;4996058;28;20628;-88
2022/04/10 05:30:40;;;;;;;51.03;23.97;;;;;;;13.46;83.95;98046.75;4995579;28;20199;-87
2022/04/10 05:33:06;;;;;;;31.20;13.30;;;;;;;12.96;83.95;97956.41;4996021;28;20168;-87
2022/04/10 05:35:31;;;;;;;22.13;11.47;;;;;;;12.60;84.59;97902.66;4996988;28;20168;-86
2022/04/10 05:37:56;;;;;;;21.77;11.90;;;;;;;11.16;83.78;97637.16;4994598;28;20163;-87
2022/04/10 05:40:22;;;;;;;25.20;14.30;;;;;;;12.83;84.28;97908.84;4995784;28;20246;-87
2022/04/10 05:42:47;;;;;;;26.73;13.57;;;;;;;13.08;83.59;97966.72;5003605;28;20254;-88
2022/04/10 05:45:14;;;;;;;32.13;14.43;;;;;;;13.69;84.29;98064.78;4996484;28;20194;-87
2022/04/10 05:47:41;;;;;;;24.90;14.17;;;;;;;11.59;84.74;97732.31;4998707;28;20227;-86
2022/04/10 05:50:08;;;;;;;46.93;21.60;;;;;;;13.50;85.18;98017.16;4998032;28;20171;-88
2022/04/10 05:52:44;;;;;;;32.03;16.93;;;;;;;12.31;84.94;97803.34;5002245;28;20175;-89
2022/04/10 05:55:12;;;;;;;33.27;16.67;;;;;;;11.70;83.70;97690.25;4995701;28;20190;-88
2022/04/10 05:57:38;;;;;;;33.43;17.20;;;;;;;12.17;83.75;97785.44;4997027;28;20152;-88
2022/04/10 06:00:07;;;;;;;24.43;11.33;;;;;;;13.53;86.11;98033.28;4994767;28;20186;-87
2022/04/10 06:02:33;;;;;;;17.83;10.77;;;;;;;14.14;84.46;98110.19;4994280;28;20160;-88
2022/04/10 06:04:58;;;;;;;16.27;10.17;;;;;;;12.75;85.06;97887.59;4994777;28;20181;-89
2022/04/10 06:07:24;;;;;;;19.20;10.07;;;;;;;12.04;85.82;97793.75;4993108;28;20171;-88
2022/04/10 06:09:49;;;;;;;21.97;10.70;;;;;;;11.50;85.51;97668.84;4994035;28;20650;-89
2022/04/10 06:12:15;;;;;;;27.27;13.40;;;;;;;11.53;86.77;97737.31;4992874;28;20690;-87
2022/04/10 06:14:40;;;;;;;23.90;11.23;;;;;;;11.99;87.79;97833.41;4996749;28;20254;-85
2022/04/10 06:17:07;;;;;;;29.80;17.73;;;;;;;12.64;88.27;97922.16;4993766;28;20164;-87
2022/04/10 06:19:33;;;;;;;25.40;13.87;;;;;;;11.76;86.09;97719.03;4992875;28;20259;-87
2022/04/10 06:21:58;;;;;;;23.00;14.40;;;;;;;11.80;84.19;97665.00;5007178;28;20171;-87
2022/04/10 06:24:24;;;;;;;19.33;10.40;;;;;;;13.06;81.44;97821.03;4991234;28;20178;-87
2022/04/10 06:26:49;;;;;;;28.23;13.27;;;;;;;14.96;79.34;98073.44;4994736;28;20164;-87
2022/04/10 06:29:15;;;;;;;20.00;10.10;;;;;;;14.85;78.71;98052.13;4999071;28;20160;-87
2022/04/10 06:31:41;;;;;;;21.27;11.43;;;;;;;15.33;77.30;98087.16;4996614;28;20196;-87
2022/04/10 06:34:07;;;;;;;21.70;11.90;;;;;;;13.62;75.75;97762.16;4998089;28;20163;-86
2022/04/10 06:36:32;;;;;;;29.27;14.53;;;;;;;13.99;74.83;97800.47;4995223;28;20241;-87
2022/04/10 06:38:57;;;;;;;32.83;19.07;;;;;;;15.35;74.63;98014.09;4995631;28;20186;-87
2022/04/10 06:41:23;;;;;;;23.00;12.07;;;;;;;14.92;75.19;97981.66;4995813;28;20164;-87
2022/04/10 06:43:48;;;;;;;23.27;11.50;;;;;;;15.68;74.74;98084.78;4995841;28;20273;-87
2022/04/10 06:46:14;;;;;;;20.37;10.37;;;;;;;13.74;75.61;97774.91;4996643;28;20171;-87
2022/04/10 06:48:39;;;;;;;15.87;9.47;;;;;;;13.18;74.73;97667.88;4995722;28;20222;-88
2022/04/10 06:51:05;;;;;;;18.30;9.87;;;;;;;14.27;73.19;97805.69;5000720;28;20289;-87
2022/04/10 06:53:30;;;;;;;22.97;9.97;;;;;;;13.57;72.37;97657.88;5014871;28;20167;-87
2022/04/10 06:55:56;;;;;;;19.83;9.80;;;;;;;14.56;72.90;97855.88;5014686;28;20163;-87
2022/04/10 06:58:22;;;;;;;24.83;10.40;;;;;;;15.53;71.82;97978.47;5016633;28;20245;-87
2022/04/10 07:00:51;;;;;;;23.80;11.77;;;;;;;14.88;70.58;97807.56;5016354;28;20155;-87
2022/04/10 07:03:17;;;;;;;21.17;9.40;;;;;;;16.09;68.98;97980.16;5037732;28;20170;-87
2022/04/10 07:05:43;;;;;;;21.20;10.30;;;;;;;13.74;69.56;97613.00;5023617;28;20163;-87
2022/04/10 07:08:09;;;;;;;21.83;11.20;;;;;;;16.46;67.65;97976.69;5015225;28;20182;-87
2022/04/10 07:10:36;;;;;;;25.43;11.63;;;;;;;17.43;66.33;98066.69;5014427;28;20256;-87
2022/04/10 07:13:05;;;;;;;33.27;17.80;;;;;;;16.75;65.04;97928.94;5017207;28;20611;-87
2022/04/10 07:15:31;;;;;;;34.67;20.60;;;;;;;16.89;65.34;97972.34;5016775;28;20171;-88
2022/04/10 07:17:58;;;;;;;41.47;21.70;;;;;;;16.05;65.02;97805.72;5016855;28;20233;-87
2022/04/10 07:20:24;;;;;;;39.43;21.07;;;;;;;17.73;64.60;98060.59;5022987;28;20158;-86
2022/04/10 07:25:33;;;;;;;38.40;19.53;;;;;;;16.04;63.44;97770.00;5000099;28;20747;-87
2022/04/10 07:28:00;;;;;;;35.63;20.47;;;;;;;17.99;63.30;98074.03;4995847;28;20194;-88
2022/04/10 07:30:26;;;;;;;34.03;19.77;;;;;;;17.08;62.35;97925.38;4995067;28;20160;-88
2022/04/10 07:32:53;;;;;;;27.90;16.53;;;;;;;15.00;63.48;97644.47;5011819;28;20199;-87
2022/04/10 07:35:19;;;;;;;24.83;13.20;;;;;;;17.42;65.14;98098.25;4995329;28;20910;-87
2022/04/10 07:37:46;;;;;;;30.83;14.90;;;;;;;16.48;65.25;97895.81;4994846;28;20167;-87
2022/04/10 07:40:11;;;;;;;23.63;13.20;;;;;;;17.42;66.43;98087.16;4995021;28;20585;-89
2022/04/10 07:42:43;;;;;;;21.97;11.00;;;;;;;17.14;67.76;98085.59;4994923;28;20178;-88
2022/04/10 07:45:10;;;;;;;21.47;10.43;;;;;;;18.14;63.17;98063.72;5002522;28;20315;-88
2022/04/10 07:47:35;;;;;;;22.60;10.40;;;;;;;17.10;62.55;97939.84;4995715;28;20231;-87
2022/04/10 07:50:01;;;;;;;19.20;10.30;;;;;;;18.30;61.76;98036.25;4996613;28;20222;-88
2022/04/10 07:52:26;;;;;;;24.50;10.50;;;;;;;16.32;58.67;97585.16;5011095;28;20671;-88
2022/04/10 07:54:54;;;;;;;23.63;10.37;;;;;;;17.90;56.93;97804.44;5008367;28;20182;-88
2022/04/10 07:57:20;;;;;;;14.23;9.70;;;;;;;18.91;55.63;97884.34;5009660;28;20270;-88
2022/04/10 07:59:45;;;;;;;18.30;9.77;;;;;;;19.94;54.17;98010.31;5013309;28;20725;-88
2022/04/10 08:02:11;;;;;;;18.70;9.50;;;;;;;19.64;54.40;98010.75;5014501;28;20158;-87
2022/04/10 08:04:37;;;;;;;18.17;9.63;;;;;;;19.42;55.17;97976.84;5010776;28;20175;-88
2022/04/10 08:07:03;;;;;;;21.43;10.23;;;;;;;17.92;55.08;97767.72;4993456;28;20168;-88
2022/04/10 08:09:29;;;;;;;21.67;10.90;;;;;;;17.88;57.44;97830.03;4993754;28;20186;-88
2022/04/10 08:11:54;;;;;;;20.23;10.13;;;;;;;18.40;56.89;97899.50;4994507;28;20246;-88
2022/04/10 08:14:20;;;;;;;26.77;12.00;;;;;;;17.84;60.82;97994.81;4995305;28;20620;-88
2022/04/10 08:16:46;;;;;;;20.50;11.43;;;;;;;17.79;63.21;98075.91;4994427;28;20184;-88
2022/04/10 08:19:11;;;;;;;30.30;15.77;;;;;;;16.53;64.88;97917.09;4993777;28;20172;-87
2022/04/10 08:21:37;;;;;;;22.50;12.70;;;;;;;14.77;69.28;97787.19;5008780;28;20174;-87
2022/04/10 08:24:03;;;;;;;16.00;8.80;;;;;;;15.22;71.38;97951.16;4994222;28;20167;-89
2022/04/10 08:26:28;;;;;;;22.37;10.07;;;;;;;14.61;73.25;97905.13;4994180;28;20528;-88
2022/04/10 08:28:54;;;;;;;24.90;12.53;;;;;;;14.14;72.98;97836.19;4993121;28;20168;-88
2022/04/10 08:31:19;;;;;;;18.43;8.30;;;;;;;14.69;72.94;97917.91;4998646;28;20198;-88
2022/04/10 08:33:45;;;;;;;20.40;8.83;;;;;;;16.10;72.42;98129.91;4995854;28;20182;-88
2022/04/10 08:36:10;;;;;;;22.33;9.97;;;;;;;13.65;74.74;97759.63;4993598;28;20168;-89
2022/04/10 08:38:35;;;;;;;19.13;9.30;;;;;;;15.29;78.32;98063.38;4993412;28;20163;-88
2022/04/10 08:41:02;;;;;;;23.30;10.67;;;;;;;15.59;86.01;98131.53;4994495;28;20166;-89
2022/04/10 08:43:28;;;;;;;21.37;10.97;;;;;;;15.64;89.46;98149.38;4993993;28;20167;-89
2022/04/10 08:45:58;;;;;;;32.37;17.37;;;;;;;14.99;89.99;98017.38;4993942;28;20182;-90
2022/04/10 08:48:26;;;;;;;21.27;11.23;;;;;;;15.63;88.24;98117.09;4996214;28;20241;-87
2022/04/10 08:50:55;;;;;;;23.67;13.00;;;;;;;15.41;91.84;98144.16;4994522;28;20195;-87
2022/04/10 08:53:23;;;;;;;27.60;12.70;;;;;;;12.38;92.93;97587.78;4995243;28;20163;-87
2022/04/10 08:55:48;;;;;;;25.33;13.13;;;;;;;12.95;93.47;97686.34;4995572;28;20545;-88
2022/04/10 08:58:14;;;;;;;22.77;11.90;;;;;;;15.50;91.59;98140.81;4996124;28;20163;-88
2022/04/10 09:00:43;;;;;;;27.10;12.73;;;;;;;13.46;91.94;97726.47;4996948;28;20760;-87
2022/04/10 09:03:08;;;;;;;22.27;10.43;;;;;;;12.91;91.02;97592.34;5029632;28;20164;-87
2022/04/10 09:05:34;;;;;;;22.53;10.73;;;;;;;14.36;89.07;97815.94;4996210;28;20172;-88
2022/04/10 09:08:12;;;;;;;22.50;11.60;;;;;;;15.95;86.52;98092.47;4995538;28;20225;-87
2022/04/10 09:10:57;;;;;;;22.33;12.07;;;;;;;16.20;85.03;98091.66;4997176;28;20190;-89
2022/04/10 09:13:35;;;;;;;25.20;12.70;;;;;;;16.28;83.84;98099.31;4995478;28;20233;-88
2022/04/10 09:16:09;;;;;;;25.30;14.07;;;;;;;16.39;82.33;98115.50;4994943;28;20167;-89
2022/04/10 09:19:04;;;;;;;21.57;13.70;;;;;;;16.89;81.46;98095.84;4995899;28;20164;-87
2022/04/10 09:21:30;;;;;;;22.27;12.50;;;;;;;17.10;74.82;98084.72;4977706;28;20206;-89
2022/04/10 09:24:09;;;;;;;23.50;11.93;;;;;;;17.10;74.19;98082.19;4979786;28;20221;-87
2022/04/10 09:26:51;;;;;;;20.97;11.30;;;;;;;15.90;71.28;97943.59;5010955;28;20187;-87
2022/04/10 09:29:20;;;;;;;18.73;9.70;;;;;;;16.55;70.93;98098.47;5004410;28;20183;-87
2022/04/10 09:31:47;;;;;;;17.87;9.50;;;;;;;15.92;70.07;97975.94;4995120;28;20261;-88
2022/04/10 09:34:17;;;;;;;20.87;10.57;;;;;;;16.69;69.42;98082.28;4993495;28;20211;-87
2022/04/10 09:36:45;;;;;;;20.10;9.47;;;;;;;17.27;66.62;98074.44;4994085;28;20175;-88
2022/04/10 09:39:10;;;;;;;18.93;9.80;;;;;;;18.39;63.20;98072.03;4993779;28;20269;-87
2022/04/10 09:41:37;;;;;;;19.37;10.87;;;;;;;16.72;58.46;97772.22;4993065;28;20171;-88
2022/04/10 09:44:31;;;;;;;16.03;9.70;;;;;;;18.63;57.35;98066.72;4977339;28;20171;-87
2022/04/10 09:46:59;;;;;;;22.20;11.90;;;;;;;18.19;58.54;98036.34;4899131;29;20237;-86
2022/04/10 09:49:30;;;;;;;22.00;11.50;;;;;;;17.70;56.78;97814.88;4891430;29;20210;-88
2022/04/10 09:52:05;;;;;;;18.53;10.80;;;;;;;18.47;60.14;98069.41;4899921;29;20849;-88
2022/04/10 09:54:34;;;;;;;22.60;11.00;;;;;;;17.72;64.39;98071.66;4901132;29;20170;-88
2022/04/10 09:57:05;;;;;;;19.77;12.40;;;;;;;17.85;65.98;98078.44;4900068;29;20190;-87
2022/04/10 09:59:37;;;;;;;17.63;10.77;;;;;;;15.05;66.78;97593.50;4920201;29;20182;-86
2022/04/10 10:02:06;;;;;;;24.53;12.60;;;;;;;17.13;62.59;97843.50;4920479;29;20170;-87
2022/04/10 10:04:37;;;;;;;19.80;11.30;;;;;;;18.00;60.03;97913.56;4920394;29;20190;-88
2022/04/10 10:07:05;;;;;;;19.30;11.03;;;;;;;18.02;57.73;97841.00;4921783;29;20170;-89
2022/04/10 10:09:32;;;;;;;19.27;9.50;;;;;;;17.23;57.92;97793.97;4923427;29;20166;-87
2022/04/10 10:11:59;;;;;;;15.83;9.43;;;;;;;17.60;58.37;97839.75;4924917;29;20253;-88
2022/04/10 10:14:27;;;;;;;15.97;9.63;;;;;;;17.94;56.96;97790.72;4906054;29;20197;-89
2022/04/10 10:16:52;;;;;;;15.80;9.83;;;;;;;18.25;55.60;97777.56;4921596;29;20276;-88
2022/04/10 10:19:18;;;;;;;16.53;9.03;;;;;;;18.72;52.82;97759.00;4920403;29;20218;-86
2022/04/10 10:21:43;;;;;;;16.10;9.07;;;;;;;18.55;50.42;97611.44;4920280;29;20172;-87
2022/04/10 10:24:12;;;;;;;18.13;8.90;;;;;;;19.34;50.06;97740.00;4968397;28;20191;-86
2022/04/10 10:26:44;;;;;;;18.07;8.47;;;;;;;19.72;50.60;97846.34;4999985;28;20167;-87
2022/04/10 10:29:19;;;;;;;23.47;13.23;;;;;;;19.51;51.13;97831.28;4997746;28;20230;-87
2022/04/10 10:31:55;;;;;;;13.50;7.60;;;;;;;19.02;51.17;97829.47;5001554;28;20186;-89
2022/04/10 10:34:23;;;;;;;12.50;8.23;;;;;;;18.06;51.99;97648.03;4999277;28;20187;-87
2022/04/10 10:36:49;;;;;;;12.53;6.93;;;;;;;19.96;52.19;98023.13;4999155;28;20680;-87
2022/04/10 10:39:14;;;;;;;12.97;8.13;;;;;;;18.53;51.31;97719.13;5000017;28;20206;-88
2022/04/10 10:41:40;;;;;;;16.73;8.50;;;;;;;19.21;50.52;97796.69;4997189;28;20171;-89
2022/04/10 10:44:38;;;;;;;17.70;9.07;;;;;;;21.13;48.86;98002.16;4998346;28;20646;-87
2022/04/10 10:47:04;;;;;;;14.93;8.77;;;;;;;21.06;48.37;97948.25;4996860;28;20223;-87
2022/04/10 10:49:31;;;;;;;16.53;8.70;;;;;;;19.19;48.27;97739.44;4997901;28;20233;-86
2022/04/10 10:52:01;;;;;;;22.83;13.33;;;;;;;20.32;50.05;98022.56;4985831;28;20199;-87
2022/04/10 10:54:34;;;;;;;15.17;8.60;;;;;;;20.72;49.59;98017.53;4980159;28;20202;-87
2022/04/10 10:57:22;;;;;;;15.50;9.10;;;;;;;20.21;51.29;98010.75;4994944;28;20241;-87
2022/04/10 10:59:51;;;;;;;19.67;10.90;;;;;;;20.93;48.17;97996.53;4996507;28;20163;-88
2022/04/10 11:02:20;;;;;;;12.23;6.83;;;;;;;19.47;46.74;97696.19;5000877;28;20232;-88
2022/04/10 11:04:50;;;;;;;19.60;11.27;;;;;;;19.20;48.41;97736.81;5002074;28;20159;-88
2022/04/10 11:07:18;;;;;;;12.00;7.30;;;;;;;21.51;45.91;97987.59;4982055;28;20257;-86
2022/04/10 11:09:58;;;;;;;13.63;7.77;;;;;;;21.32;45.25;97987.19;4996315;28;20273;-88
2022/04/10 11:12:50;;;;;;;12.27;7.13;;;;;;;21.48;45.03;97983.38;4998372;28;20202;-87
2022/04/10 11:15:22;;;;;;;9.33;5.50;;;;;;;21.69;44.27;97972.59;4981013;28;20636;-87
2022/04/10 11:17:52;;;;;;;9.37;4.97;;;;;;;20.72;46.32;97888.94;4982941;28;20604;-87
2022/04/10 11:20:21;;;;;;;8.73;4.60;;;;;;;20.01;49.22;97944.28;4995341;28;20172;-88
2022/04/10 11:22:53;;;;;;;13.57;6.53;;;;;;;19.74;51.58;98003.78;4988332;28;20199;-88
2022/04/10 11:25:38;;;;;;;10.57;6.70;;;;;;;19.86;51.48;97945.38;5013847;28;20665;-87